M I D A S
Marine Information and Data Acquisition System
Tripno 2197 of the Zeeleeuw from 2011-10-13 07:27:03 to 2011-10-13 12:12:58
Back to CruiseResearch ActivitiesStationsMapUnderway DataData graphs

EquipmentUnitsComment
TimeDGPSUTC
LatitudeDGPSDM.mWGS84
LongitudeDGPSDM.mWGS84
HeadingGyrodeg 
SOGDGPSknotsSpeed over ground
COGDGPSdegCourse over ground
DepthEcho soundermeters200 kHz
Missing or incorrect values are displayed as -999
Navigation data collected by the RV Zeeleeuw from 2011-10-13 07:23:24 to 2011-10-13 12:28:02
                                                                                    Next 1000 lines
Time Latitude Longitude Heading SOG COG Depth
2011-10-13 07:23:34 51°13.636 2°56.012 104.4 1.5 284 6.1
2011-10-13 07:23:39 51°13.637 2°56.007 104.6 2.2 286 6.3
2011-10-13 07:23:44 51°13.638 2°56.001 104.9 2.8 287 -999
2011-10-13 07:23:50 51°13.64 2°55.993 105.1 3.4 289 -999
2011-10-13 07:23:56 51°13.642 2°55.983 105.4 3.9 288 -999
2011-10-13 07:24:01 51°13.644 2°55.974 105.8 4.4 287 -999
2011-10-13 07:24:07 51°13.646 2°55.962 105.9 4.7 288 -999
2011-10-13 07:24:12 51°13.648 2°55.951 106.2 5 288 -999
2011-10-13 07:24:17 51°13.65 2°55.941 106.7 5.1 289 -999
2011-10-13 07:24:22 51°13.653 2°55.93 107.4 4.9 289 -999
2011-10-13 07:24:27 51°13.655 2°55.92 107.9 4.7 290 -999
2011-10-13 07:24:32 51°13.657 2°55.911 108.5 4.6 289 -999
2011-10-13 07:24:37 51°13.659 2°55.901 109.1 4.6 290 -999
2011-10-13 07:24:42 51°13.661 2°55.892 109.7 4.5 292 -999
2011-10-13 07:24:47 51°13.663 2°55.883 110.2 4.4 291 -999
2011-10-13 07:24:52 51°13.665 2°55.874 110.8 4.3 292 -999
2011-10-13 07:24:57 51°13.667 2°55.865 111.2 4.2 291 -999
2011-10-13 07:25:02 51°13.67 2°55.856 111.5 4.2 292 -999
2011-10-13 07:25:07 51°13.672 2°55.848 111.5 4.2 293 -999
2011-10-13 07:25:12 51°13.674 2°55.84 111.5 4 294 -999
2011-10-13 07:25:17 51°13.676 2°55.832 111.7 3.9 292 -999
2011-10-13 07:25:22 51°13.678 2°55.824 111.8 3.8 294 -999
2011-10-13 07:25:27 51°13.68 2°55.816 111.8 3.7 292 -999
2011-10-13 07:25:32 51°13.682 2°55.809 111.4 3.5 294 -999
2011-10-13 07:25:37 51°13.683 2°55.802 110.9 3.4 291 -999
2011-10-13 07:25:42 51°13.685 2°55.795 110.1 3.3 292 -999
2011-10-13 07:25:47 51°13.687 2°55.789 109.1 3.2 290 -999
2011-10-13 07:25:52 51°13.689 2°55.782 108 3.1 292 -999
2011-10-13 07:25:57 51°13.69 2°55.776 106.8 3.1 289 -999
2011-10-13 07:26:02 51°13.691 2°55.769 105.9 3 289 10.9
2011-10-13 07:26:07 51°13.692 2°55.763 104.9 3 289 -999
2011-10-13 07:26:12 51°13.694 2°55.757 102.9 2.9 288 -999
2011-10-13 07:26:17 51°13.695 2°55.752 101.5 2.7 287 11
2011-10-13 07:26:22 51°13.695 2°55.746 100.5 2.5 286 -999
2011-10-13 07:26:27 51°13.696 2°55.742 98.9 1.8 287 -999
2011-10-13 07:26:32 51°13.697 2°55.74 97.2 0.8 296 -999
2011-10-13 07:26:37 51°13.697 2°55.74 92.9 0.3 2 -999
2011-10-13 07:26:42 51°13.698 2°55.74 86.3 0.4 33 11.1
2011-10-13 07:26:47 51°13.698 2°55.741 80.9 0.6 48 11.1
2011-10-13 07:26:52 51°13.699 2°55.743 77.6 0.7 60 11.4
2011-10-13 07:26:58 51°13.7 2°55.745 73.4 0.9 55 11.3
2011-10-13 07:27:01 51°13.7 2°55.746 68.2 1.1 59 11.4
2011-10-13 07:27:06 51°13.701 2°55.748 63.6 1.2 56 11.4
2011-10-13 07:27:12 51°13.702 2°55.751 58.9 1.1 51 11.1
2011-10-13 07:27:17 51°13.703 2°55.752 54.6 0.8 42 11.3
2011-10-13 07:27:22 51°13.703 2°55.752 51.5 0.4 58 11.2
2011-10-13 07:27:26 51°13.703 2°55.752 48.6 0.2 251 11.2
2011-10-13 07:27:31 51°13.703 2°55.751 45.1 0.6 225 11.4
2011-10-13 07:27:36 51°13.702 2°55.75 42.2 1 222 11.3
2011-10-13 07:27:41 51°13.7 2°55.748 39.5 1.4 217 11.2
2011-10-13 07:27:46 51°13.698 2°55.746 37.2 1.7 218 11.4
2011-10-13 07:27:52 51°13.696 2°55.743 34.9 2 215 -999
2011-10-13 07:27:58 51°13.693 2°55.74 33.4 2 216 -999
2011-10-13 07:28:03 51°13.69 2°55.738 31.4 2 212 -999
2011-10-13 07:28:07 51°13.689 2°55.736 30.9 1.8 214 -999
2011-10-13 07:28:12 51°13.688 2°55.735 30.8 0.8 212 -999
2011-10-13 07:28:18 51°13.688 2°55.734 29.3 0.2 318 -999
2011-10-13 07:28:23 51°13.689 2°55.735 25.5 0.8 13 -999
2011-10-13 07:28:27 51°13.691 2°55.735 19.5 1.4 13 -999
2011-10-13 07:28:32 51°13.694 2°55.736 13.4 2 5 -999
2011-10-13 07:28:37 51°13.697 2°55.736 4.3 2.3 358 -999
2011-10-13 07:28:43 51°13.701 2°55.735 357.9 2.5 353 -999
2011-10-13 07:28:47 51°13.704 2°55.734 351.6 2.7 348 -999
2011-10-13 07:28:53 51°13.709 2°55.732 346.6 2.9 343 -999
2011-10-13 07:28:58 51°13.713 2°55.729 341.1 3 339 -999
2011-10-13 07:29:02 51°13.716 2°55.727 337.6 3.2 339 10.8
2011-10-13 07:29:07 51°13.72 2°55.724 336.5 3.3 337 10.8
2011-10-13 07:29:12 51°13.725 2°55.721 336.1 3.5 338 10.6
2011-10-13 07:29:17 51°13.729 2°55.718 335.8 3.7 335 10.5
2011-10-13 07:29:22 51°13.734 2°55.714 335.2 3.9 335 10.4
2011-10-13 07:29:27 51°13.74 2°55.71 334.5 4.2 334 10.3
2011-10-13 07:29:31 51°13.744 2°55.707 334.2 4.4 335 10.1
2011-10-13 07:29:36 51°13.75 2°55.703 333.9 4.5 333 10.2
2011-10-13 07:29:41 51°13.756 2°55.698 333.4 4.7 333 10.1
2011-10-13 07:29:46 51°13.762 2°55.694 333.2 4.9 333 10.1
2011-10-13 07:29:51 51°13.768 2°55.688 333.2 5 332 10.3
2011-10-13 07:29:55 51°13.773 2°55.684 332.7 5.1 333 10.3
2011-10-13 07:30:00 51°13.78 2°55.679 332.4 5.2 332 10.3
2011-10-13 07:30:05 51°13.787 2°55.673 332.5 5.4 334 10.3
2011-10-13 07:30:10 51°13.794 2°55.668 333.5 5.5 334 10.9
2011-10-13 07:30:15 51°13.8 2°55.663 334.5 5.6 334 11.1
2011-10-13 07:30:20 51°13.808 2°55.657 334.8 5.7 334 10.4
2011-10-13 07:30:25 51°13.815 2°55.652 334.9 5.8 335 -999
2011-10-13 07:30:31 51°13.824 2°55.646 335.1 5.8 336 10.9
2011-10-13 07:30:35 51°13.83 2°55.641 336.1 5.9 337 10.5
2011-10-13 07:30:40 51°13.837 2°55.636 337.1 6 338 10.6
2011-10-13 07:30:45 51°13.845 2°55.632 338.4 6 339 10.3
2011-10-13 07:30:50 51°13.853 2°55.627 339.1 6.1 339 10.3
2011-10-13 07:30:55 51°13.861 2°55.622 339.7 6.2 340 10.2
2011-10-13 07:31:00 51°13.869 2°55.618 340.4 6.3 341 10.2
2011-10-13 07:31:04 51°13.876 2°55.614 341.2 6.4 342 10
2011-10-13 07:31:09 51°13.885 2°55.61 341.9 6.5 343 10.3
2011-10-13 07:31:14 51°13.893 2°55.605 342.7 6.6 343 10.8
2011-10-13 07:31:19 51°13.902 2°55.601 343 6.7 343 10.9
2011-10-13 07:31:24 51°13.911 2°55.597 343.4 6.7 344 10.3
2011-10-13 07:31:29 51°13.92 2°55.593 343.4 6.8 343 10.2
2011-10-13 07:31:34 51°13.929 2°55.588 343.1 6.9 343 10.3
2011-10-13 07:31:39 51°13.938 2°55.584 342.7 6.9 343 10.3
2011-10-13 07:31:43 51°13.946 2°55.58 342.3 7.1 342 10.1
2011-10-13 07:31:49 51°13.957 2°55.574 342.1 7.2 343 10.1
2011-10-13 07:31:53 51°13.965 2°55.571 342.1 7.3 342 10.2
2011-10-13 07:31:59 51°13.977 2°55.564 341.3 7.4 341 9.6
2011-10-13 07:32:03 51°13.984 2°55.56 341 7.5 341 10
2011-10-13 07:32:09 51°13.996 2°55.553 340.8 7.5 340 9.9
2011-10-13 07:32:13 51°14.004 2°55.548 340.3 7.6 340 10
2011-10-13 07:32:19 51°14.016 2°55.541 339.3 7.6 339 10
2011-10-13 07:32:23 51°14.024 2°55.536 338.7 7.7 338 10.2
2011-10-13 07:32:28 51°14.033 2°55.529 337.6 7.7 336 10.2
2011-10-13 07:32:34 51°14.044 2°55.52 335.4 7.6 333 10.1
2011-10-13 07:32:39 51°14.054 2°55.512 334.2 7.7 333 9.9
2011-10-13 07:32:43 51°14.062 2°55.506 334.2 7.8 333 10
2011-10-13 07:32:49 51°14.073 2°55.497 333.7 7.8 333 9.9
2011-10-13 07:32:54 51°14.083 2°55.488 332.7 7.7 332 9.9
2011-10-13 07:32:59 51°14.092 2°55.48 331.4 7.7 331 10.1
2011-10-13 07:33:03 51°14.1 2°55.473 330 7.7 330 9.8
2011-10-13 07:33:08 51°14.109 2°55.464 329.5 7.7 330 9.7
2011-10-13 07:33:13 51°14.118 2°55.456 329.5 7.7 330 9.7
2011-10-13 07:33:19 51°14.129 2°55.446 329.4 7.7 330 9.8
2011-10-13 07:33:24 51°14.138 2°55.437 329.6 7.7 331 -999
2011-10-13 07:33:30 51°14.149 2°55.427 329.6 7.7 329 -999
2011-10-13 07:33:35 51°14.158 2°55.418 328.5 7.6 328 -999
2011-10-13 07:33:41 51°14.169 2°55.407 328.4 7.7 328 -999
2011-10-13 07:33:47 51°14.18 2°55.396 328.2 7.7 328 -999
2011-10-13 07:33:52 51°14.189 2°55.387 327.9 7.7 328 -999
2011-10-13 07:33:57 51°14.198 2°55.378 327.8 7.7 327 -999
2011-10-13 07:34:02 51°14.207 2°55.369 327.5 7.7 328 -999
2011-10-13 07:34:07 51°14.216 2°55.36 327.7 7.7 328 10
2011-10-13 07:34:12 51°14.225 2°55.351 327.7 7.7 327 -999
2011-10-13 07:34:17 51°14.234 2°55.342 327.6 7.7 328 9.9
2011-10-13 07:34:22 51°14.243 2°55.333 327.8 7.7 328 9.9
2011-10-13 07:34:28 51°14.253 2°55.322 328.1 7.7 327 10
2011-10-13 07:34:32 51°14.261 2°55.314 327.8 7.7 327 9.9
2011-10-13 07:34:37 51°14.27 2°55.305 327.5 7.8 328 9.9
2011-10-13 07:34:42 51°14.28 2°55.296 327.9 7.9 328 9.9
2011-10-13 07:34:47 51°14.289 2°55.286 328.1 8.1 328 -999
2011-10-13 07:34:52 51°14.299 2°55.277 328.4 8.2 328 -999
2011-10-13 07:34:57 51°14.309 2°55.266 328.7 8.4 327 9.6
2011-10-13 07:35:02 51°14.319 2°55.256 327.7 8.5 327 10.1
2011-10-13 07:35:07 51°14.329 2°55.246 327.7 8.6 327 9.7
2011-10-13 07:35:12 51°14.339 2°55.235 328 8.7 327 9.9
2011-10-13 07:35:17 51°14.349 2°55.225 327.5 8.8 327 -999
2011-10-13 07:35:22 51°14.36 2°55.213 326.7 9 326 10
2011-10-13 07:35:27 51°14.37 2°55.203 326.3 9 326 10
2011-10-13 07:35:32 51°14.38 2°55.191 326.5 9 326 10.1
2011-10-13 07:35:36 51°14.389 2°55.182 326.5 9.1 326 10.1
2011-10-13 07:35:42 51°14.402 2°55.169 326.2 9.2 327 10
2011-10-13 07:35:47 51°14.412 2°55.158 326.6 9.2 327 10
2011-10-13 07:35:52 51°14.423 2°55.146 326.9 9.2 325 10.1
2011-10-13 07:35:56 51°14.431 2°55.137 326 9.3 325 10
2011-10-13 07:36:01 51°14.442 2°55.126 325.3 9.2 325 10
2011-10-13 07:36:06 51°14.453 2°55.114 325.4 9.4 325 10
2011-10-13 07:36:11 51°14.463 2°55.102 325.6 9.5 325 10
2011-10-13 07:36:16 51°14.474 2°55.09 325.2 9.6 325 10.1
2011-10-13 07:36:20 51°14.483 2°55.08 324.8 9.9 326 9.9
2011-10-13 07:36:25 51°14.495 2°55.068 325.5 10.1 327 10.8
2011-10-13 07:36:31 51°14.509 2°55.053 326.7 10.3 326 10.6
2011-10-13 07:36:35 51°14.519 2°55.042 326.7 10.6 325 10.5
2011-10-13 07:36:40 51°14.531 2°55.028 326 10.8 324 10.4
2011-10-13 07:36:44 51°14.541 2°55.017 325.9 11 324 10.7
2011-10-13 07:36:50 51°14.555 2°54.998 325.5 11.3 319 10.5
2011-10-13 07:36:55 51°14.567 2°54.981 323.7 11.4 319 10.8
2011-10-13 07:37:00 51°14.579 2°54.964 322.7 11.6 319 11
2011-10-13 07:37:04 51°14.59 2°54.951 324.7 11.7 322 10.9
2011-10-13 07:37:09 51°14.602 2°54.934 326 11.9 320 10.8
2011-10-13 07:37:14 51°14.615 2°54.917 325 12.1 319 10.6
2011-10-13 07:37:19 51°14.628 2°54.899 323.8 12 320 10.6
2011-10-13 07:37:24 51°14.641 2°54.884 325.8 12 323 10.6
2011-10-13 07:37:28 51°14.651 2°54.87 326.3 12.1 321 10.5
2011-10-13 07:37:33 51°14.664 2°54.853 325.2 12.2 320 10.5
2011-10-13 07:37:39 51°14.68 2°54.832 324.9 12.2 321 10.5
2011-10-13 07:37:44 51°14.694 2°54.816 326.1 12.3 322 10.5
2011-10-13 07:37:48 51°14.704 2°54.802 325.8 12.3 321 10.2
2011-10-13 07:37:53 51°14.717 2°54.786 325.6 12.2 322 10.3
2011-10-13 07:37:59 51°14.733 2°54.766 327.4 12.2 324 10.4
2011-10-13 07:38:04 51°14.747 2°54.75 328.2 12.3 324 10.5
2011-10-13 07:38:08 51°14.759 2°54.737 328.2 12.4 324 10.5
2011-10-13 07:38:13 51°14.772 2°54.722 328.8 12.2 326 10.4
2011-10-13 07:38:19 51°14.789 2°54.704 329.9 12.3 326 10.8
2011-10-13 07:38:24 51°14.804 2°54.688 330.2 12.3 326 10.9
2011-10-13 07:38:29 51°14.818 2°54.674 331.1 12.2 328 10.6
2011-10-13 07:38:33 51°14.83 2°54.662 331.7 12.1 327 10.6
2011-10-13 07:38:38 51°14.844 2°54.648 331.7 12.1 328 10.9
2011-10-13 07:38:44 51°14.861 2°54.631 332.2 12.1 328 10.9
2011-10-13 07:38:49 51°14.876 2°54.617 332.5 12.1 328 10.8
2011-10-13 07:38:53 51°14.887 2°54.605 331.1 12.2 326 10.9
2011-10-13 07:38:58 51°14.901 2°54.59 330.1 12.2 326 11.1
2011-10-13 07:39:04 51°14.917 2°54.571 329.1 12.2 324 11.1
2011-10-13 07:39:08 51°14.928 2°54.56 328.4 12.2 326 10.7
2011-10-13 07:39:13 51°14.943 2°54.546 330.8 12.1 330 10.6
2011-10-13 07:39:19 51°14.961 2°54.531 334.2 12 333 10.4
2011-10-13 07:39:24 51°14.976 2°54.521 338.3 11.8 337 10.5
2011-10-13 07:39:28 51°14.988 2°54.512 339.3 12 334 10.8
2011-10-13 07:39:33 51°15.003 2°54.5 337.6 12 333 10.1
2011-10-13 07:39:39 51°15.02 2°54.486 337.1 11.9 333 10.3
2011-10-13 07:39:44 51°15.035 2°54.474 337.1 11.8 333 10.1
2011-10-13 07:39:48 51°15.047 2°54.464 336.5 11.9 331 10.1
2011-10-13 07:39:53 51°15.061 2°54.45 335.2 11.9 329 10
2011-10-13 07:39:59 51°15.078 2°54.433 332.8 12 328 9.4
2011-10-13 07:40:04 51°15.092 2°54.419 331.9 11.9 328 9.1
2011-10-13 07:40:08 51°15.103 2°54.408 331.3 11.9 327 9.4
2011-10-13 07:40:13 51°15.117 2°54.394 331.1 11.8 328 9.1
2011-10-13 07:40:18 51°15.131 2°54.381 332.7 11.8 331 8.9
2011-10-13 07:40:24 51°15.148 2°54.367 334.9 11.8 333 8.8
2011-10-13 07:40:28 51°15.16 2°54.358 337.6 11.7 335 8.7
2011-10-13 07:40:33 51°15.175 2°54.349 339.8 11.6 339 8.6
2011-10-13 07:40:38 51°15.19 2°54.34 342.9 11.5 341 8.8
2011-10-13 07:40:44 51°15.209 2°54.332 345.2 11.5 344 8.6
2011-10-13 07:40:48 51°15.221 2°54.327 348.7 11.4 347 8.5
2011-10-13 07:40:53 51°15.237 2°54.323 351.2 11.3 350 8.5
2011-10-13 07:40:59 51°15.255 2°54.319 354.2 11.2 353 8.2
2011-10-13 07:41:03 51°15.267 2°54.318 357.2 11.2 356 8.3
2011-10-13 07:41:08 51°15.283 2°54.317 0.5 11.1 359 8.1
2011-10-13 07:41:13 51°15.298 2°54.317 3.2 11.1 2 8.2
2011-10-13 07:41:19 51°15.317 2°54.318 5.5 11.1 3 8.2
2011-10-13 07:41:23 51°15.329 2°54.32 6.7 11.1 4 8.2
2011-10-13 07:41:28 51°15.344 2°54.322 7.4 11.1 4 8.3
2011-10-13 07:41:33 51°15.36 2°54.324 8.7 11.1 5 8.4
2011-10-13 07:41:38 51°15.375 2°54.326 8.8 11.1 5 8.3
2011-10-13 07:41:44 51°15.393 2°54.33 9.2 11.1 7 8.4
2011-10-13 07:41:48 51°15.405 2°54.332 10.8 11.1 8 8.8
2011-10-13 07:41:53 51°15.421 2°54.336 11.4 11.2 8 8.5
2011-10-13 07:41:59 51°15.439 2°54.34 11.6 11.1 8 8.5
2011-10-13 07:42:04 51°15.454 2°54.344 11.7 11.2 8 8.7
2011-10-13 07:42:08 51°15.467 2°54.346 12 11.2 8 8.6
2011-10-13 07:42:13 51°15.482 2°54.349 11.8 11.2 7 8.6
2011-10-13 07:42:19 51°15.501 2°54.353 11.6 11.2 6 8.8
2011-10-13 07:42:24 51°15.516 2°54.354 9.8 11.3 3 8.9
2011-10-13 07:42:28 51°15.529 2°54.354 8 11.2 2 8.7
2011-10-13 07:42:33 51°15.544 2°54.353 5.6 11.3 357 8.8
2011-10-13 07:42:38 51°15.56 2°54.352 3.2 11.3 358 8.9
2011-10-13 07:42:44 51°15.579 2°54.349 1.7 11.4 354 8.8
2011-10-13 07:42:48 51°15.591 2°54.348 0.5 11.4 356 8.8
2011-10-13 07:42:53 51°15.607 2°54.345 359.6 11.5 353 9
2011-10-13 07:42:58 51°15.623 2°54.342 358.8 11.5 354 8.9
2011-10-13 07:43:03 51°15.639 2°54.339 358.6 11.5 353 8.9
2011-10-13 07:43:08 51°15.654 2°54.336 358.1 11.5 353 9
2011-10-13 07:43:13 51°15.67 2°54.333 358 11.4 353 9.1
2011-10-13 07:43:19 51°15.689 2°54.33 357.9 11.4 354 9.1
2011-10-13 07:43:23 51°15.702 2°54.327 358.4 11.5 353 9
2011-10-13 07:43:28 51°15.718 2°54.324 358.1 11.6 353 9.2
2011-10-13 07:43:33 51°15.734 2°54.321 357.9 11.7 353 9.2
2011-10-13 07:43:39 51°15.753 2°54.317 357.7 11.6 353 9.4
2011-10-13 07:43:44 51°15.769 2°54.313 357.3 11.5 352 9.2
2011-10-13 07:43:48 51°15.781 2°54.311 357.4 11.5 353 9.1
2011-10-13 07:43:53 51°15.797 2°54.308 357.6 11.6 352 9.2
2011-10-13 07:43:58 51°15.813 2°54.304 357.3 11.5 353 9.3
2011-10-13 07:44:04 51°15.832 2°54.3 357.3 11.5 353 9.3
2011-10-13 07:44:08 51°15.845 2°54.297 357.4 11.7 352 9.2
2011-10-13 07:44:13 51°15.861 2°54.294 357.2 11.7 351 9.3
2011-10-13 07:44:19 51°15.88 2°54.289 356.1 11.5 352 9.4
2011-10-13 07:44:24 51°15.896 2°54.285 356.3 11.5 352 9.4
2011-10-13 07:44:28 51°15.909 2°54.282 356.3 11.6 350 9.5
2011-10-13 07:44:33 51°15.925 2°54.278 355.3 11.6 351 9.3
2011-10-13 07:44:39 51°15.944 2°54.273 356.1 11.6 350 9.6
2011-10-13 07:44:44 51°15.96 2°54.269 355.8 11.6 352 9.6
2011-10-13 07:44:48 51°15.972 2°54.266 356.5 11.6 351 9.7
2011-10-13 07:44:53 51°15.988 2°54.262 356 11.6 351 9.8
2011-10-13 07:44:59 51°16.007 2°54.257 356 11.5 351 9.7
2011-10-13 07:45:04 51°16.023 2°54.253 356.2 11.3 352 9.7
2011-10-13 07:45:08 51°16.035 2°54.25 356.5 11.2 351 9.9
2011-10-13 07:45:13 51°16.05 2°54.247 356.5 11 351 9.7
2011-10-13 07:45:19 51°16.067 2°54.242 356.5 10.5 351 9.6
2011-10-13 07:45:23 51°16.079 2°54.239 356.1 10.2 350 9.6
2011-10-13 07:45:28 51°16.092 2°54.235 355.7 10 350 9.8
2011-10-13 07:45:33 51°16.106 2°54.231 355.3 9.7 349 10.1
2011-10-13 07:45:38 51°16.118 2°54.227 354.4 9.3 348 10.1
2011-10-13 07:45:44 51°16.133 2°54.221 353.7 8.7 347 10.1
2011-10-13 07:45:48 51°16.141 2°54.218 353.1 8.2 346 10.2
2011-10-13 07:45:53 51°16.152 2°54.213 352.6 7.7 344 10.1
2011-10-13 07:45:59 51°16.163 2°54.207 351.5 7.3 343 10.1
2011-10-13 07:46:03 51°16.17 2°54.204 350.6 6.9 342 10.3
2011-10-13 07:46:08 51°16.179 2°54.199 350.4 6.5 342 10
2011-10-13 07:46:14 51°16.189 2°54.194 350.6 6.2 341 10.1
2011-10-13 07:46:19 51°16.196 2°54.19 350.9 5.8 342 10.1
2011-10-13 07:46:23 51°16.202 2°54.187 351.5 5.6 342 10
2011-10-13 07:46:28 51°16.209 2°54.184 352.5 5.3 344 10.3
2011-10-13 07:46:33 51°16.216 2°54.181 354.4 4.8 346 10.2
2011-10-13 07:46:39 51°16.223 2°54.179 358 4.4 350 10.2
2011-10-13 07:46:44 51°16.228 2°54.177 1.9 4.1 353 10.3
2011-10-13 07:46:48 51°16.233 2°54.177 5.9 3.7 357 10.3
2011-10-13 07:46:53 51°16.238 2°54.177 9.6 3.5 358 10.4
2011-10-13 07:46:59 51°16.243 2°54.177 13.4 3.2 3 10.2
2011-10-13 07:47:04 51°16.247 2°54.179 17.5 3 9 10.2
2011-10-13 07:47:08 51°16.249 2°54.18 21.8 2.7 13 10.3
2011-10-13 07:47:13 51°16.253 2°54.181 26.2 2.5 18 10.1
2011-10-13 07:47:19 51°16.256 2°54.184 30.9 2.3 25 10.2
2011-10-13 07:47:24 51°16.259 2°54.187 35.2 2.1 33 10.2
2011-10-13 07:47:28 51°16.261 2°54.189 39.7 2 36 10.2
2011-10-13 07:47:33 51°16.263 2°54.192 44.1 2 47 10.1
2011-10-13 07:47:38 51°16.264 2°54.195 48.7 1.8 49 10.1
2011-10-13 07:47:44 51°16.266 2°54.199 53.2 1.8 63 10.2
2011-10-13 07:47:48 51°16.266 2°54.202 58 1.8 68 10.2
2011-10-13 07:47:53 51°16.267 2°54.206 62.5 1.9 78 10.3
2011-10-13 07:47:59 51°16.267 2°54.211 67.6 1.9 82 10.2
2011-10-13 07:48:04 51°16.267 2°54.215 72.6 1.9 95 10.2
2011-10-13 07:48:08 51°16.266 2°54.219 77.3 2 99 10.4
2011-10-13 07:48:13 51°16.265 2°54.223 82.8 2 102 10.2
2011-10-13 07:48:19 51°16.264 2°54.228 87.1 2 119 10.3
2011-10-13 07:48:24 51°16.263 2°54.232 91 1.8 115 10.3
2011-10-13 07:48:28 51°16.262 2°54.234 92.8 1.6 122 10
2011-10-13 07:48:33 51°16.26 2°54.236 95 1.3 129 10.1
2011-10-13 07:48:39 51°16.259 2°54.238 96.1 1.2 155 10.3
2011-10-13 07:48:44 51°16.257 2°54.238 98.8 0.9 169 10.3
2011-10-13 07:48:48 51°16.257 2°54.238 100.2 0.9 189 10.3
2011-10-13 07:48:53 51°16.255 2°54.237 103.1 0.9 207 10.2
2011-10-13 07:48:59 51°16.254 2°54.235 105.2 1 220 10
2011-10-13 07:49:03 51°16.253 2°54.234 107 1.2 225 10.2
2011-10-13 07:49:08 51°16.252 2°54.232 109.2 1.2 226 10.2
2011-10-13 07:49:13 51°16.25 2°54.23 111.7 1.3 223 10.3
2011-10-13 07:49:19 51°16.249 2°54.227 113.7 1.4 225 10.3
2011-10-13 07:49:24 51°16.248 2°54.225 116.4 1.2 225 10.3
2011-10-13 07:49:28 51°16.247 2°54.224 118.4 1.3 227 10.1
2011-10-13 07:49:33 51°16.245 2°54.221 121.3 1.3 225 10.3
2011-10-13 07:49:38 51°16.244 2°54.219 122.9 1.5 226 10.3
2011-10-13 07:49:44 51°16.242 2°54.217 125.3 1.2 226 10.3
2011-10-13 07:49:48 51°16.241 2°54.215 127.6 1.4 227 10.1
2011-10-13 07:49:53 51°16.24 2°54.213 129.8 1.3 226 10.3
2011-10-13 07:49:58 51°16.239 2°54.21 132 1.5 229 10.3
2011-10-13 07:50:04 51°16.237 2°54.207 134.1 1.4 228 10.2
2011-10-13 07:50:08 51°16.236 2°54.206 136.2 1.5 227 10.3
2011-10-13 07:50:13 51°16.235 2°54.203 138.2 1.5 228 10.2
2011-10-13 07:50:19 51°16.233 2°54.2 140.2 1.4 227 10.2
2011-10-13 07:50:24 51°16.232 2°54.198 142.2 1.6 228 10.2
2011-10-13 07:50:28 51°16.23 2°54.196 144.4 1.4 229 10.2
2011-10-13 07:50:33 51°16.229 2°54.193 146.2 1.6 230 10.2
2011-10-13 07:50:39 51°16.227 2°54.191 148 1.4 224 10.2
2011-10-13 07:50:44 51°16.226 2°54.188 149.7 1.6 227 10.1
2011-10-13 07:50:48 51°16.225 2°54.186 151.2 1.4 225 10.3
2011-10-13 07:50:54 51°16.223 2°54.183 152.7 1.6 229 10.2
2011-10-13 07:50:59 51°16.221 2°54.181 154.3 1.5 225 10.2
2011-10-13 07:51:04 51°16.22 2°54.178 156 1.6 228 10.2
2011-10-13 07:51:08 51°16.219 2°54.176 157.6 1.6 225 10.2
2011-10-13 07:51:13 51°16.217 2°54.173 159 1.6 228 10
2011-10-13 07:51:19 51°16.215 2°54.17 160.7 1.5 227 10.4
2011-10-13 07:51:24 51°16.214 2°54.167 162.2 1.6 230 10.2
2011-10-13 07:51:28 51°16.213 2°54.165 163.7 1.6 227 10.2
2011-10-13 07:51:33 51°16.211 2°54.163 165.3 1.6 230 10.2
2011-10-13 07:51:38 51°16.21 2°54.16 166.8 1.6 226 10.2
2011-10-13 07:51:44 51°16.208 2°54.156 168 1.7 231 10.2
2011-10-13 07:51:48 51°16.207 2°54.155 169.7 1.5 227 10.4
2011-10-13 07:51:53 51°16.205 2°54.152 171.3 1.7 231 10.2
2011-10-13 07:51:59 51°16.203 2°54.149 172.8 1.5 226 10.4
2011-10-13 07:52:04 51°16.202 2°54.146 174.2 1.6 231 10.3
2011-10-13 07:52:08 51°16.201 2°54.143 175.4 1.7 230 10.2
2011-10-13 07:52:13 51°16.199 2°54.141 176.7 1.7 228 10.2
2011-10-13 07:52:19 51°16.197 2°54.138 178 1.6 228 10.3
2011-10-13 07:52:24 51°16.196 2°54.135 179.2 1.7 230 10.1
2011-10-13 07:52:28 51°16.195 2°54.133 180.2 1.6 228 10.4
2011-10-13 07:52:33 51°16.193 2°54.13 181.5 1.6 229 10.3
2011-10-13 07:52:39 51°16.191 2°54.126 182.3 1.7 229 10.2
2011-10-13 07:52:43 51°16.19 2°54.125 183 1.6 231 10.3
2011-10-13 07:52:48 51°16.189 2°54.122 184 1.6 227 10.3
2011-10-13 07:52:54 51°16.187 2°54.118 184.3 1.7 233 10.1
2011-10-13 07:52:59 51°16.186 2°54.116 184.9 1.5 223 10.3
2011-10-13 07:53:03 51°16.185 2°54.114 185.4 1.8 233 10.2
2011-10-13 07:53:08 51°16.183 2°54.111 185.8 1.5 226 10.4
2011-10-13 07:53:13 51°16.182 2°54.108 186.4 1.7 235 10.2
2011-10-13 07:53:19 51°16.18 2°54.105 186.5 1.7 229 10.3
2011-10-13 07:53:24 51°16.178 2°54.102 187.2 1.5 226 10.3
2011-10-13 07:53:28 51°16.177 2°54.1 187.2 1.7 231 10.2
2011-10-13 07:53:33 51°16.176 2°54.098 187.7 1.5 225 10.4
2011-10-13 07:53:39 51°16.174 2°54.094 188.1 1.7 233 10.3
2011-10-13 07:53:44 51°16.173 2°54.092 188.2 1.6 226 10.3
2011-10-13 07:53:48 51°16.171 2°54.089 188.6 1.7 233 10.2
2011-10-13 07:53:53 51°16.17 2°54.087 188.9 1.6 228 10.3
2011-10-13 07:53:59 51°16.168 2°54.083 189.1 1.7 232 10.3
2011-10-13 07:54:04 51°16.167 2°54.081 189.5 1.6 228 10.3
2011-10-13 07:54:08 51°16.165 2°54.078 189.5 1.7 231 10.2
2011-10-13 07:54:13 51°16.164 2°54.076 189.8 1.5 225 10.4
2011-10-13 07:54:19 51°16.162 2°54.072 189.9 1.7 231 10.3
2011-10-13 07:54:24 51°16.161 2°54.07 189.7 1.6 227 10.2
2011-10-13 07:54:28 51°16.159 2°54.067 189.7 1.7 229 10.3
2011-10-13 07:54:33 51°16.158 2°54.065 189.6 1.6 229 10.2
2011-10-13 07:54:38 51°16.156 2°54.062 189.6 1.7 228 10.3
2011-10-13 07:54:44 51°16.155 2°54.059 189.5 1.6 229 10.3
2011-10-13 07:54:48 51°16.153 2°54.057 189.5 1.6 228 10.4
2011-10-13 07:54:53 51°16.152 2°54.054 189.3 1.6 229 10.3
2011-10-13 07:54:59 51°16.15 2°54.05 189 1.7 230 10.2
2011-10-13 07:55:04 51°16.149 2°54.048 188.8 1.7 229 10.2
2011-10-13 07:55:08 51°16.147 2°54.046 188.7 1.6 226 10.4
2011-10-13 07:55:13 51°16.146 2°54.043 188.6 1.7 230 10.3
2011-10-13 07:55:19 51°16.144 2°54.04 188.3 1.6 227 10.3
2011-10-13 07:55:23 51°16.143 2°54.037 188.3 1.6 226 10.2
2011-10-13 07:55:28 51°16.141 2°54.035 188 1.7 228 10.2
2011-10-13 07:55:33 51°16.14 2°54.032 188.1 1.6 225 10.5
2011-10-13 07:55:39 51°16.138 2°54.029 188.1 1.6 227 10.4
2011-10-13 07:55:44 51°16.136 2°54.026 187.8 1.6 229 10.2
2011-10-13 07:55:48 51°16.135 2°54.024 187.4 1.6 223 10.4
2011-10-13 07:55:53 51°16.134 2°54.021 187.5 1.7 230 10.2
2011-10-13 07:55:58 51°16.132 2°54.019 187.3 1.6 225 10.4
2011-10-13 07:56:04 51°16.13 2°54.015 187.2 1.6 228 10.3
2011-10-13 07:56:08 51°16.129 2°54.013 187.1 1.5 225 10.3
2011-10-13 07:56:13 51°16.128 2°54.01 186.9 1.6 232 10.3
2011-10-13 07:56:18 51°16.126 2°54.008 186.6 1.6 224 10.5
2011-10-13 07:56:24 51°16.124 2°54.005 186.6 1.6 229 10.3
2011-10-13 07:56:28 51°16.123 2°54.003 186.3 1.6 224 10.3
2011-10-13 07:56:33 51°16.121 2°54 186.3 1.6 227 10.4
2011-10-13 07:56:38 51°16.12 2°53.998 186.3 1.6 227 10.3
2011-10-13 07:56:44 51°16.118 2°53.994 185.9 1.6 225 10.4
2011-10-13 07:56:48 51°16.116 2°53.992 185.8 1.6 224 10.3
2011-10-13 07:56:53 51°16.115 2°53.99 185.6 1.6 228 10.3
2011-10-13 07:56:59 51°16.113 2°53.987 185.3 1.6 226 10.3
2011-10-13 07:57:04 51°16.112 2°53.984 185.2 1.7 228 10.3
2011-10-13 07:57:08 51°16.11 2°53.982 185.1 1.6 226 10.3
2011-10-13 07:57:13 51°16.109 2°53.979 185 1.6 227 10.5
2011-10-13 07:57:19 51°16.107 2°53.976 184.9 1.6 228 10.2
2011-10-13 07:57:24 51°16.105 2°53.973 184.7 1.7 226 10.3
2011-10-13 07:57:28 51°16.104 2°53.971 184.7 1.7 228 10.3
2011-10-13 07:57:34 51°16.102 2°53.968 184.7 1.6 225 10.3
2011-10-13 07:57:39 51°16.101 2°53.965 184.4 1.6 227 10.3
2011-10-13 07:57:43 51°16.1 2°53.963 184.2 1.5 223 10.3
2011-10-13 07:57:48 51°16.098 2°53.96 183.7 1.7 228 10.2
2011-10-13 07:57:53 51°16.097 2°53.958 183.6 1.6 223 10.4
2011-10-13 07:57:59 51°16.095 2°53.955 183.2 1.7 222 10.3
2011-10-13 07:58:04 51°16.092 2°53.952 182.6 2 217 10.3
2011-10-13 07:58:08 51°16.09 2°53.95 182.1 2.2 211 10.3
2011-10-13 07:58:13 51°16.087 2°53.948 181.5 2.6 208 10.3
2011-10-13 07:58:18 51°16.083 2°53.945 180.9 3.1 200 10.4
2011-10-13 07:58:24 51°16.077 2°53.942 180 3.6 200 10.2
2011-10-13 07:58:28 51°16.073 2°53.941 178.9 3.9 193 10.4
2011-10-13 07:58:33 51°16.067 2°53.938 177.7 4.7 195 10.1
2011-10-13 07:58:38 51°16.06 2°53.937 176.5 5.2 188 10.3
2011-10-13 07:58:44 51°16.051 2°53.934 175.9 5.7 191 10.3
2011-10-13 07:58:48 51°16.044 2°53.932 177.7 6 189 10.2
2011-10-13 07:58:53 51°16.035 2°53.929 179.2 6.6 193 10.3
2011-10-13 07:58:59 51°16.024 2°53.925 182.3 6.8 195 10.1
2011-10-13 07:59:04 51°16.015 2°53.92 185.4 7.2 196 10.2
2011-10-13 07:59:08 51°16.007 2°53.916 189.5 7.5 200 10.2
2011-10-13 07:59:13 51°15.997 2°53.91 192.4 7.6 200 10.1
2011-10-13 07:59:19 51°15.984 2°53.903 193.5 8.1 202 10.3
2011-10-13 07:59:23 51°15.976 2°53.897 195.3 8.6 203 10.2
2011-10-13 07:59:28 51°15.964 2°53.889 196.5 9.1 203 10.1
2011-10-13 07:59:34 51°15.949 2°53.878 197.7 9.7 204 10.2
2011-10-13 07:59:39 51°15.937 2°53.868 199 10.2 205 10.1
2011-10-13 07:59:43 51°15.926 2°53.86 199.7 10.6 206 10
2011-10-13 07:59:48 51°15.913 2°53.849 201.1 10.9 207 10
2011-10-13 07:59:53 51°15.899 2°53.837 202.4 11.5 209 10.2
2011-10-13 07:59:59 51°15.882 2°53.822 204.5 11.5 209 10
2011-10-13 08:00:04 51°15.867 2°53.81 204.7 11.9 210 10.1
2011-10-13 08:00:08 51°15.856 2°53.798 205.5 12.4 211 10.2
2011-10-13 08:00:13 51°15.841 2°53.784 206.8 12.4 211 10.2
2011-10-13 08:00:19 51°15.824 2°53.766 208.5 12.4 211 9.9
2011-10-13 08:00:24 51°15.808 2°53.752 206.4 13.1 209 10.1
2011-10-13 08:00:28 51°15.795 2°53.739 206.9 13.2 213 10.2
2011-10-13 08:00:33 51°15.78 2°53.726 207.8 12.8 209 10.1
2011-10-13 08:00:38 51°15.765 2°53.711 206 13.1 211 10.2
2011-10-13 08:00:44 51°15.746 2°53.691 207 13.4 214 10.2
2011-10-13 08:00:48 51°15.734 2°53.678 210 13.3 215 10.3
2011-10-13 08:00:53 51°15.719 2°53.661 212 13.2 216 10.5
2011-10-13 08:00:59 51°15.701 2°53.641 212.1 13.4 214 11.1
2011-10-13 08:01:04 51°15.686 2°53.623 212 13.5 216 11.2
2011-10-13 08:01:08 51°15.674 2°53.61 212.6 13.3 215 11.2
2011-10-13 08:01:13 51°15.659 2°53.592 212.1 13.4 215 11.2
2011-10-13 08:01:19 51°15.64 2°53.572 211.9 13.5 216 10.4
2011-10-13 08:01:24 51°15.625 2°53.554 212.4 13.4 216 10.3
2011-10-13 08:01:28 51°15.613 2°53.541 212.7 13.3 215 10.4
2011-10-13 08:01:33 51°15.598 2°53.524 212.3 13.2 216 9.5
2011-10-13 08:01:39 51°15.58 2°53.504 212 13.3 213 9.3
2011-10-13 08:01:44 51°15.565 2°53.487 210.6 13.4 216 10.4
2011-10-13 08:01:48 51°15.553 2°53.473 212.1 13.1 216 10.2
2011-10-13 08:01:53 51°15.537 2°53.457 212 13.5 214 10.4
2011-10-13 08:01:59 51°15.52 2°53.435 211.2 13.4 218 9.5
2011-10-13 08:02:04 51°15.504 2°53.419 213 13.2 214 9.3
2011-10-13 08:02:08 51°15.493 2°53.405 212.5 13.3 217 9.8
2011-10-13 08:02:14 51°15.474 2°53.385 212.6 13.4 214 10.1
2011-10-13 08:02:19 51°15.459 2°53.367 212.5 13.4 216 10
2011-10-13 08:02:24 51°15.444 2°53.35 212.3 13.2 215 9.9
2011-10-13 08:02:28 51°15.432 2°53.337 211.9 13.3 215 10.1
2011-10-13 08:02:33 51°15.417 2°53.319 212 13.4 216 9.8
2011-10-13 08:02:38 51°15.402 2°53.301 213.6 13.3 217 10.1
2011-10-13 08:02:44 51°15.386 2°53.279 215.7 13.2 220 9.8
2011-10-13 08:02:48 51°15.374 2°53.265 216.1 13.4 217 10.3
2011-10-13 08:02:53 51°15.36 2°53.244 218.4 13.4 225 10
2011-10-13 08:02:58 51°15.346 2°53.226 219.7 13.3 217 9.9
2011-10-13 08:03:04 51°15.33 2°53.202 217.8 13.3 224 9.7
2011-10-13 08:03:08 51°15.318 2°53.187 219 13.3 219 9.9
2011-10-13 08:03:13 51°15.304 2°53.167 218.4 13.4 222 9.8
2011-10-13 08:03:19 51°15.287 2°53.144 219.3 13.3 220 9.9
2011-10-13 08:03:24 51°15.273 2°53.125 218.7 13.4 221 9.8
2011-10-13 08:03:28 51°15.262 2°53.11 218.2 13.4 220 9.7
2011-10-13 08:03:33 51°15.248 2°53.09 219.2 13.3 222 9.7
2011-10-13 08:03:39 51°15.231 2°53.068 218.4 13.4 218 9.8
2011-10-13 08:03:44 51°15.217 2°53.048 217.7 13.5 222 9.8
2011-10-13 08:03:48 51°15.206 2°53.033 218.6 13.3 219 9.6
2011-10-13 08:03:53 51°15.191 2°53.015 217.1 13.2 219 9.7
2011-10-13 08:03:59 51°15.174 2°52.992 216.4 13.4 219 9.6
2011-10-13 08:04:04 51°15.159 2°52.974 216.4 13.4 219 9.8
2011-10-13 08:04:08 51°15.148 2°52.96 216.6 13.2 218 9.7
2011-10-13 08:04:14 51°15.13 2°52.938 215.1 13.5 218 9.7
2011-10-13 08:04:19 51°15.116 2°52.919 215.3 13.4 219 9.7
2011-10-13 08:04:24 51°15.101 2°52.901 216.7 13.2 218 9.4
2011-10-13 08:04:28 51°15.09 2°52.887 216 13.3 218 9.7
2011-10-13 08:04:33 51°15.076 2°52.867 217 13.3 221 9.5
2011-10-13 08:04:39 51°15.058 2°52.846 217 13.3 217 9.7
2011-10-13 08:04:44 51°15.044 2°52.827 216.8 13.2 220 9.5
2011-10-13 08:04:48 51°15.033 2°52.813 216.8 13.2 218 9
2011-10-13 08:04:53 51°15.019 2°52.794 217.1 13.2 221 9.4
2011-10-13 08:04:59 51°15.001 2°52.772 217.6 13.2 219 9.6
2011-10-13 08:05:04 51°14.987 2°52.754 217 13.3 218 9.6
2011-10-13 08:05:08 51°14.975 2°52.739 216.5 13.3 219 9.4
2011-10-13 08:05:13 51°14.961 2°52.72 217.3 13.2 218 9.4
2011-10-13 08:05:18 51°14.947 2°52.703 216.3 13.3 219 9.5
2011-10-13 08:05:24 51°14.93 2°52.68 216.6 13.2 219 9.4
2011-10-13 08:05:28 51°14.918 2°52.666 216.8 13.1 217 9.3
2011-10-13 08:05:33 51°14.904 2°52.648 215.6 13.2 218 9.2
2011-10-13 08:05:39 51°14.885 2°52.628 214.6 13.2 215 9.2
2011-10-13 08:05:44 51°14.871 2°52.611 213 13.2 216 9.2
2011-10-13 08:05:48 51°14.858 2°52.598 212.3 13.1 212 9.1
2011-10-13 08:05:53 51°14.843 2°52.583 210.2 13.1 213 9.1
2011-10-13 08:05:59 51°14.825 2°52.564 210.5 13.1 213 9.1
2011-10-13 08:06:04 51°14.809 2°52.548 209.8 13.2 212 9
2011-10-13 08:06:08 51°14.797 2°52.536 209 13.3 213 9
2011-10-13 08:06:13 51°14.781 2°52.52 209.9 13.2 214 8.9
2011-10-13 08:06:19 51°14.763 2°52.501 210 13 212 8.9
2011-10-13 08:06:24 51°14.748 2°52.485 209.2 13.2 214 8.8
2011-10-13 08:06:28 51°14.736 2°52.472 210.1 13.4 215 9
2011-10-13 08:06:33 51°14.722 2°52.453 214.1 13.2 219 8.8
2011-10-13 08:06:39 51°14.705 2°52.43 216.5 13 222 8.8
2011-10-13 08:06:44 51°14.693 2°52.41 219.4 13.1 224 8.7
2011-10-13 08:06:48 51°14.682 2°52.393 222.2 13.2 226 8.9
2011-10-13 08:06:53 51°14.671 2°52.371 226 13.1 230 8.8
2011-10-13 08:06:59 51°14.657 2°52.344 228.8 13 232 8.7
2011-10-13 08:07:04 51°14.647 2°52.32 231.1 13 236 8.6
2011-10-13 08:07:08 51°14.639 2°52.301 235.4 13 236 8.7
2011-10-13 08:07:13 51°14.629 2°52.277 236.7 13 236 8.7
2011-10-13 08:07:19 51°14.616 2°52.25 234.4 13.1 232 8.8
2011-10-13 08:07:24 51°14.604 2°52.227 232 12.9 231 8.6
2011-10-13 08:07:28 51°14.594 2°52.211 228.7 12.9 226 8.5
2011-10-13 08:07:33 51°14.581 2°52.191 224.7 13 225 8.7
2011-10-13 08:07:38 51°14.567 2°52.173 221.2 13 219 8.6
2011-10-13 08:07:44 51°14.55 2°52.152 217.8 12.9 218 8.5
2011-10-13 08:07:48 51°14.538 2°52.139 215.2 13 215 8.6
2011-10-13 08:07:53 51°14.524 2°52.122 213.4 12.9 215 8.5
2011-10-13 08:07:58 51°14.509 2°52.107 212 13 213 8.4
2011-10-13 08:08:04 51°14.49 2°52.089 210 13 212 8.4
2011-10-13 08:08:08 51°14.478 2°52.076 209.6 12.9 214 8.3
2011-10-13 08:08:13 51°14.463 2°52.06 209.8 13 215 8.3
2011-10-13 08:08:19 51°14.448 2°52.037 213.3 12.5 223 8.2
2011-10-13 08:08:24 51°14.436 2°52.019 219 12.1 224 8
2011-10-13 08:08:28 51°14.427 2°52.003 223.6 11.9 229 8.5
2011-10-13 08:08:33 51°14.42 2°51.982 232.3 10.7 238 7.9
2011-10-13 08:08:39 51°14.41 2°51.959 236.7 10.3 237 8.4
2011-10-13 08:08:44 51°14.404 2°51.94 240.1 9.6 243 8.2
2011-10-13 08:08:48 51°14.399 2°51.926 243.4 9.1 241 8.4
2011-10-13 08:08:53 51°14.395 2°51.908 245.4 8.6 247 8.1
2011-10-13 08:08:59 51°14.389 2°51.888 247.3 8.2 245 8.2
2011-10-13 08:09:04 51°14.385 2°51.873 249.3 7.6 249 8.3
2011-10-13 08:09:08 51°14.382 2°51.861 251.6 7.2 248 8.4
2011-10-13 08:09:13 51°14.379 2°51.847 253.5 6.7 251 8.3
2011-10-13 08:09:19 51°14.376 2°51.832 256 6.1 249 8.5
2011-10-13 08:09:24 51°14.374 2°51.82 259.2 5.5 259 8.2
2011-10-13 08:09:28 51°14.373 2°51.811 262.8 5.1 255 8.4
2011-10-13 08:09:33 51°14.372 2°51.801 266.1 4.6 261 8.4
2011-10-13 08:09:38 51°14.371 2°51.792 269.7 4.1 259 8.1
2011-10-13 08:09:44 51°14.37 2°51.782 272.2 3.7 262 8.3
2011-10-13 08:09:48 51°14.369 2°51.776 274.4 3.5 261 8.3
2011-10-13 08:09:53 51°14.368 2°51.769 275.8 3.4 262 8.3
2011-10-13 08:09:58 51°14.368 2°51.761 276.5 3.4 262 8.2
2011-10-13 08:10:04 51°14.367 2°51.752 276.7 3.6 261 8.2
2011-10-13 08:10:08 51°14.366 2°51.746 276.3 3.7 263 8.4
2011-10-13 08:10:13 51°14.366 2°51.737 276.2 3.9 263 8.3
2011-10-13 08:10:19 51°14.365 2°51.726 275.9 4.1 265 8.2
2011-10-13 08:10:24 51°14.364 2°51.717 276.2 4.3 265 8.4
2011-10-13 08:10:28 51°14.364 2°51.709 276.8 4.4 266 8.3
2011-10-13 08:10:33 51°14.364 2°51.699 277.6 4.5 267 8.3
2011-10-13 08:10:39 51°14.364 2°51.687 278.8 4.5 268 8.2
2011-10-13 08:10:44 51°14.363 2°51.677 279.5 4.7 268 8.3
2011-10-13 08:10:48 51°14.363 2°51.669 280.9 4.7 270 8.4
2011-10-13 08:10:54 51°14.364 2°51.656 281.9 4.8 271 8.5
2011-10-13 08:10:59 51°14.364 2°51.646 283.4 4.7 274 8.4
2011-10-13 08:11:03 51°14.364 2°51.637 285 4.7 275 8.3
2011-10-13 08:11:08 51°14.365 2°51.627 286.2 4.8 274 8.4
2011-10-13 08:11:13 51°14.366 2°51.616 287.5 4.8 276 8.4
2011-10-13 08:11:19 51°14.367 2°51.604 289.3 4.8 279 8.4
2011-10-13 08:11:24 51°14.368 2°51.593 290.5 4.9 279 8.6
2011-10-13 08:11:28 51°14.369 2°51.585 292 4.8 280 8.7
2011-10-13 08:11:33 51°14.37 2°51.574 293.6 4.8 282 8.5
2011-10-13 08:11:39 51°14.372 2°51.562 294.8 4.9 283 8.5
2011-10-13 08:11:44 51°14.374 2°51.551 296.1 4.8 284 8.4
2011-10-13 08:11:48 51°14.375 2°51.543 297.1 4.8 285 8.4
2011-10-13 08:11:53 51°14.377 2°51.533 298.6 4.8 287 8.6
2011-10-13 08:11:58 51°14.379 2°51.523 299.8 4.8 287 8.5
2011-10-13 08:12:04 51°14.382 2°51.511 301.4 4.8 289 8.7
2011-10-13 08:12:08 51°14.383 2°51.503 302.1 4.8 287 8.7
2011-10-13 08:12:13 51°14.385 2°51.493 302 4.8 290 8.3
2011-10-13 08:12:19 51°14.387 2°51.48 300.9 4.8 284 8.6
2011-10-13 08:12:24 51°14.389 2°51.47 299.1 4.8 286 8.7
2011-10-13 08:12:28 51°14.39 2°51.462 297.3 4.7 280 8.6
2011-10-13 08:12:33 51°14.391 2°51.453 294.9 4.5 281 8.7
2011-10-13 08:12:39 51°14.392 2°51.441 293 4.5 277 8.6
2011-10-13 08:12:43 51°14.393 2°51.433 291.1 4.4 278 8.7
2011-10-13 08:12:48 51°14.393 2°51.423 289.2 4.5 275 8.5
2011-10-13 08:12:54 51°14.394 2°51.412 287.4 4.3 274 8.5
2011-10-13 08:12:58 51°14.394 2°51.405 286.1 4.2 273 8.6
2011-10-13 08:13:03 51°14.394 2°51.395 285.2 4.2 272 8.6
2011-10-13 08:13:08 51°14.394 2°51.386 284.2 4.1 271 8.8
2011-10-13 08:13:13 51°14.394 2°51.377 283.4 4.1 270 8.7
2011-10-13 08:13:19 51°14.394 2°51.366 282.7 4 270 8.7
2011-10-13 08:13:24 51°14.394 2°51.358 282.2 3.9 269 8.5
2011-10-13 08:13:28 51°14.394 2°51.351 281.6 3.9 268 8.6
2011-10-13 08:13:33 51°14.394 2°51.342 281 3.9 268 8.8
2011-10-13 08:13:39 51°14.394 2°51.332 280.8 3.9 268 8.7
2011-10-13 08:13:44 51°14.393 2°51.324 280.2 3.8 265 9
2011-10-13 08:13:48 51°14.393 2°51.317 279.8 3.7 265 8.7
2011-10-13 08:13:53 51°14.393 2°51.309 278.8 3.7 265 8.7
2011-10-13 08:13:58 51°14.392 2°51.301 277.8 3.7 263 8.8
2011-10-13 08:14:04 51°14.391 2°51.291 277.1 3.7 264 8.9
2011-10-13 08:14:08 51°14.391 2°51.285 276.6 3.7 262 8.8
2011-10-13 08:14:13 51°14.39 2°51.277 275.9 3.6 262 8.7
2011-10-13 08:14:18 51°14.389 2°51.269 275.1 3.6 262 8.7
2011-10-13 08:14:24 51°14.388 2°51.26 274.4 3.6 260 8.7
2011-10-13 08:14:28 51°14.387 2°51.253 273.5 3.6 259 8.8
2011-10-13 08:14:33 51°14.387 2°51.246 272.7 3.6 260 8.9
2011-10-13 08:14:39 51°14.385 2°51.237 272.3 3.5 259 8.9
2011-10-13 08:14:44 51°14.384 2°51.229 271.4 3.5 257 9
2011-10-13 08:14:48 51°14.384 2°51.223 270.3 3.5 259 8.9
2011-10-13 08:14:53 51°14.382 2°51.215 269.5 3.5 257 8.8
2011-10-13 08:14:59 51°14.381 2°51.206 268.3 3.5 257 8.7
2011-10-13 08:15:04 51°14.379 2°51.198 267.3 3.5 255 8.9
2011-10-13 08:15:08 51°14.379 2°51.192 266.2 3.5 256 8.9
2011-10-13 08:15:13 51°14.377 2°51.185 265.1 3.5 255 8.8
2011-10-13 08:15:19 51°14.375 2°51.176 264.1 3.5 251 8.9
2011-10-13 08:15:24 51°14.374 2°51.169 263 3.5 253 9.1
2011-10-13 08:15:28 51°14.373 2°51.163 262.2 3.5 253 8.9
2011-10-13 08:15:33 51°14.371 2°51.155 261.2 3.5 251 8.8
2011-10-13 08:15:39 51°14.369 2°51.147 259.8 3.5 249 8.9
2011-10-13 08:15:44 51°14.367 2°51.139 258.8 3.5 251 8.8
2011-10-13 08:15:48 51°14.366 2°51.134 258.5 3.5 248 8.8
2011-10-13 08:15:53 51°14.364 2°51.126 258.2 3.5 250 8.8
2011-10-13 08:15:59 51°14.362 2°51.117 257.8 3.6 247 8.7
2011-10-13 08:16:04 51°14.36 2°51.11 257.6 3.5 251 8.5
2011-10-13 08:16:08 51°14.359 2°51.105 257.2 3.5 246 8.9
2011-10-13 08:16:13 51°14.357 2°51.097 257 3.5 250 8.9
2011-10-13 08:16:19 51°14.354 2°51.089 256.8 3.5 245 9
2011-10-13 08:16:24 51°14.353 2°51.081 256.5 3.5 250 8.9
2011-10-13 08:16:28 51°14.351 2°51.076 256.2 3.6 247 8.8
2011-10-13 08:16:33 51°14.349 2°51.069 256.2 3.5 248 8.7
2011-10-13 08:16:39 51°14.347 2°51.06 256.3 3.6 244 8.9
2011-10-13 08:16:44 51°14.345 2°51.053 256.2 3.5 252 8.8
2011-10-13 08:16:48 51°14.343 2°51.047 255.7 3.6 244 8.8
2011-10-13 08:16:53 51°14.342 2°51.04 255.6 3.5 249 8.9
2011-10-13 08:16:59 51°14.339 2°51.032 255.4 3.5 245 9
2011-10-13 08:17:04 51°14.338 2°51.024 255.6 3.5 248 9
2011-10-13 08:17:08 51°14.336 2°51.019 255.3 3.5 246 9
2011-10-13 08:17:13 51°14.334 2°51.011 255.3 3.5 248 8.9
2011-10-13 08:17:19 51°14.332 2°51.003 255 3.5 247 8.9
2011-10-13 08:17:23 51°14.33 2°50.997 255 3.5 243 9
2011-10-13 08:17:28 51°14.328 2°50.99 254.8 3.5 249 8.7
2011-10-13 08:17:34 51°14.326 2°50.982 254.8 3.5 245 8.8
2011-10-13 08:17:38 51°14.324 2°50.976 254.5 3.5 246 8.9
2011-10-13 08:17:44 51°14.322 2°50.967 254.6 3.5 248 8.8
2011-10-13 08:17:48 51°14.32 2°50.962 254.2 3.5 244 8.9
2011-10-13 08:17:53 51°14.319 2°50.955 254 3.5 248 8.8
2011-10-13 08:17:59 51°14.316 2°50.946 253.8 3.6 245 8.7
2011-10-13 08:18:04 51°14.314 2°50.939 253.4 3.5 246 8.9
2011-10-13 08:18:08 51°14.312 2°50.934 253.4 3.5 246 9
2011-10-13 08:18:13 51°14.31 2°50.927 253 3.5 245 8.8
2011-10-13 08:18:19 51°14.308 2°50.918 252.6 3.5 244 9.1
2011-10-13 08:18:24 51°14.306 2°50.911 252.7 3.5 244 8.8
2011-10-13 08:18:28 51°14.304 2°50.905 252.1 3.5 246 8.7
2011-10-13 08:18:33 51°14.302 2°50.898 251.9 3.6 243 8.7
2011-10-13 08:18:38 51°14.3 2°50.891 251.6 3.6 245 8.8
2011-10-13 08:18:44 51°14.297 2°50.883 251.1 3.6 243 8.8
2011-10-13 08:18:48 51°14.295 2°50.877 250.7 3.6 243 8.9
2011-10-13 08:18:53 51°14.293 2°50.87 250.5 3.5 245 8.9
2011-10-13 08:18:59 51°14.29 2°50.862 250.5 3.6 243 9
2011-10-13 08:19:04 51°14.288 2°50.855 250.3 3.5 243 8.9
2011-10-13 08:19:08 51°14.286 2°50.849 250 3.5 244 8.7
2011-10-13 08:19:13 51°14.284 2°50.842 249.6 3.5 242 8.7
2011-10-13 08:19:19 51°14.282 2°50.834 249.7 3.5 244 8.6
2011-10-13 08:19:24 51°14.279 2°50.827 249.3 3.5 243 8.6
2011-10-13 08:19:28 51°14.277 2°50.821 249 3.5 243 8.8
2011-10-13 08:19:33 51°14.275 2°50.814 248.8 3.5 244 8.7
2011-10-13 08:19:39 51°14.272 2°50.806 248.5 3.5 240 8.9
2011-10-13 08:19:44 51°14.27 2°50.799 248.3 3.5 242 8.9
2011-10-13 08:19:48 51°14.268 2°50.794 248 3.5 242 8.7
2011-10-13 08:19:54 51°14.265 2°50.785 247.8 3.6 239 9
2011-10-13 08:19:59 51°14.263 2°50.778 247.5 3.5 244 8.9
2011-10-13 08:20:03 51°14.261 2°50.773 247.3 3.5 239 8.9
2011-10-13 08:20:08 51°14.259 2°50.766 246.9 3.5 245 8.8
2011-10-13 08:20:13 51°14.256 2°50.759 246.9 3.5 240 8.9
2011-10-13 08:20:19 51°14.254 2°50.751 246.6 3.5 242 8.8
2011-10-13 08:20:24 51°14.251 2°50.744 246.4 3.6 237 8.9
2011-10-13 08:20:28 51°14.25 2°50.738 246.3 3.5 246 8.7
2011-10-13 08:20:33 51°14.246 2°50.732 246.3 3.6 234 8.9
2011-10-13 08:20:38 51°14.245 2°50.725 246.2 3.5 242 8.8
2011-10-13 08:20:44 51°14.241 2°50.717 246 3.6 240 8.8
2011-10-13 08:20:48 51°14.24 2°50.711 245.4 3.5 243 8.7
2011-10-13 08:20:53 51°14.237 2°50.705 245.4 3.6 238 8.8
2011-10-13 08:20:58 51°14.235 2°50.697 245.2 3.6 240 8.8
2011-10-13 08:21:04 51°14.232 2°50.689 244.7 3.6 242 8.7
2011-10-13 08:21:08 51°14.23 2°50.684 244.8 3.6 240 8.9
2011-10-13 08:21:13 51°14.227 2°50.677 245.1 3.6 243 8.8
2011-10-13 08:21:18 51°14.224 2°50.67 244.9 3.6 238 8.9
2011-10-13 08:21:24 51°14.222 2°50.662 245.2 3.5 240 8.8
2011-10-13 08:21:28 51°14.22 2°50.657 245.3 3.6 237 9
2011-10-13 08:21:33 51°14.217 2°50.65 245.2 3.5 243 8.6
2011-10-13 08:21:39 51°14.214 2°50.642 245.3 3.6 239 8.8
2011-10-13 08:21:44 51°14.212 2°50.635 245.6 3.6 242 8.8
2011-10-13 08:21:48 51°14.21 2°50.629 245.7 3.6 239 8.6
2011-10-13 08:21:54 51°14.207 2°50.621 246.1 3.6 240 8.8
2011-10-13 08:21:59 51°14.205 2°50.614 246.2 3.5 242 8.8
2011-10-13 08:22:03 51°14.203 2°50.609 246.6 3.6 240 8.8
2011-10-13 08:22:08 51°14.2 2°50.602 246.8 3.5 241 8.9
2011-10-13 08:22:13 51°14.198 2°50.595 247.1 3.6 242 8.7
2011-10-13 08:22:19 51°14.195 2°50.587 247.2 3.6 242 8.6
2011-10-13 08:22:24 51°14.193 2°50.58 247.5 3.5 242 8.7
2011-10-13 08:22:28 51°14.191 2°50.574 247.7 3.6 239 8.8
2011-10-13 08:22:33 51°14.189 2°50.567 247.7 3.5 245 8.7
2011-10-13 08:22:39 51°14.185 2°50.559 248.2 3.6 241 8.9
2011-10-13 08:22:44 51°14.184 2°50.552 248.3 3.6 244 8.7
2011-10-13 08:22:48 51°14.181 2°50.547 248.7 3.6 239 8.8
2011-10-13 08:22:53 51°14.18 2°50.539 248.9 3.5 247 8.6
2011-10-13 08:22:59 51°14.176 2°50.531 249 3.6 240 8.6
2011-10-13 08:23:04 51°14.175 2°50.524 248.9 3.5 245 8.7
2011-10-13 08:23:08 51°14.172 2°50.519 249.1 3.6 238 8.8
2011-10-13 08:23:13 51°14.171 2°50.511 249.4 3.5 246 8.6
2011-10-13 08:23:18 51°14.168 2°50.505 249.6 3.6 240 8.9
2011-10-13 08:23:24 51°14.166 2°50.496 249.7 3.5 247 8.6
2011-10-13 08:23:28 51°14.163 2°50.49 250 3.6 241 8.6
2011-10-13 08:23:33 51°14.162 2°50.483 250.3 3.6 247 8.5
2011-10-13 08:23:39 51°14.158 2°50.475 250.4 3.6 241 8.7
2011-10-13 08:23:44 51°14.157 2°50.468 250.8 3.5 248 8.6
2011-10-13 08:23:48 51°14.155 2°50.462 250.8 3.6 241 8.6
2011-10-13 08:23:53 51°14.153 2°50.455 250.9 3.6 248 8.5
2011-10-13 08:23:59 51°14.15 2°50.447 250.8 3.6 241 8.8
2011-10-13 08:24:03 51°14.148 2°50.441 250.9 3.5 246 8.9
2011-10-13 08:24:08 51°14.146 2°50.434 251 3.6 242 8.9
2011-10-13 08:24:14 51°14.144 2°50.425 251 3.5 247 8.9
2011-10-13 08:24:19 51°14.141 2°50.418 251 3.6 242 8.7
2011-10-13 08:24:23 51°14.139 2°50.412 251.2 3.5 244 8.8
2011-10-13 08:24:28 51°14.137 2°50.406 251.2 3.5 245 8.6
2011-10-13 08:24:33 51°14.135 2°50.399 251.4 3.6 244 8.6
2011-10-13 08:24:39 51°14.133 2°50.39 251.4 3.6 245 8.5
2011-10-13 08:24:44 51°14.13 2°50.383 251.9 3.6 243 8.7
2011-10-13 08:24:48 51°14.129 2°50.377 252 3.6 246 8.6
2011-10-13 08:24:53 51°14.126 2°50.37 252.1 3.6 242 8.6
2011-10-13 08:24:59 51°14.124 2°50.361 252 3.6 245 8.9
2011-10-13 08:25:04 51°14.122 2°50.354 252.1 3.6 243 8.7
2011-10-13 08:25:08 51°14.12 2°50.349 252 3.6 246 8.5
2011-10-13 08:25:13 51°14.118 2°50.342 252.1 3.6 243 8.5
2011-10-13 08:25:18 51°14.116 2°50.334 252 3.6 247 8.6
2011-10-13 08:25:24 51°14.113 2°50.326 252.3 3.6 242 8.6
2011-10-13 08:25:28 51°14.112 2°50.32 252.4 3.6 247 8.6
2011-10-13 08:25:33 51°14.109 2°50.313 252.4 3.6 243 8.8
2011-10-13 08:25:39 51°14.107 2°50.304 252.3 3.6 245 8.7
2011-10-13 08:25:44 51°14.105 2°50.297 252.3 3.6 244 8.6
2011-10-13 08:25:48 51°14.103 2°50.291 252 3.6 248 8.5
2011-10-13 08:25:53 51°14.101 2°50.284 251.9 3.6 243 8.7
2011-10-13 08:25:59 51°14.099 2°50.275 251.7 3.6 249 8.5
2011-10-13 08:26:03 51°14.097 2°50.27 251.6 3.6 242 8.6
2011-10-13 08:26:08 51°14.095 2°50.262 251.3 3.6 247 8.6
2011-10-13 08:26:13 51°14.092 2°50.255 250.9 3.7 242 8.5
2011-10-13 08:26:18 51°14.09 2°50.248 251 3.6 247 8.5
2011-10-13 08:26:23 51°14.088 2°50.241 250.5 3.6 242 8.6
2011-10-13 08:26:28 51°14.086 2°50.234 250.3 3.6 245 8.6
2011-10-13 08:26:33 51°14.083 2°50.227 250.3 3.6 244 8.5
2011-10-13 08:26:39 51°14.081 2°50.218 249.8 3.6 243 8.6
2011-10-13 08:26:44 51°14.079 2°50.211 249.6 3.6 242 8.7
2011-10-13 08:26:48 51°14.077 2°50.205 249.3 3.6 243 8.5
2011-10-13 08:26:53 51°14.074 2°50.198 249.2 3.6 243 8.6
2011-10-13 08:26:59 51°14.072 2°50.19 249 3.6 244 8.6
2011-10-13 08:27:04 51°14.07 2°50.183 249 3.6 244 8.5
2011-10-13 08:27:08 51°14.068 2°50.177 249.8 3.6 244 8.6
2011-10-13 08:27:13 51°14.066 2°50.17 250.6 3.6 244 8.6
2011-10-13 08:27:19 51°14.063 2°50.161 251.3 3.6 248 8.5
2011-10-13 08:27:24 51°14.061 2°50.154 252 3.6 244 8.6
2011-10-13 08:27:28 51°14.059 2°50.148 252.9 3.5 248 8.5
2011-10-13 08:27:33 51°14.057 2°50.141 253.6 3.6 244 8.6
2011-10-13 08:27:38 51°14.055 2°50.134 254.5 3.6 245 8.9
2011-10-13 08:27:44 51°14.054 2°50.125 255 3.6 247 8.6
2011-10-13 08:27:48 51°14.052 2°50.119 255.6 3.6 245 8.6
2011-10-13 08:27:53 51°14.05 2°50.112 256 3.5 248 8.5
2011-10-13 08:27:59 51°14.048 2°50.103 256.3 3.6 249 8.4
2011-10-13 08:28:04 51°14.046 2°50.096 256.8 3.6 244 8.6
2011-10-13 08:28:08 51°14.044 2°50.091 257.5 3.5 249 8.4
2011-10-13 08:28:13 51°14.042 2°50.083 257.5 3.5 246 8.6
2011-10-13 08:28:19 51°14.04 2°50.075 258 3.5 249 8.6
2011-10-13 08:28:24 51°14.038 2°50.067 258.4 3.5 249 8.7
2011-10-13 08:28:28 51°14.037 2°50.062 258.5 3.5 247 8.6
2011-10-13 08:28:33 51°14.035 2°50.055 258.8 3.5 253 8.4
2011-10-13 08:28:39 51°14.033 2°50.046 259.1 3.6 247 8.4
2011-10-13 08:28:43 51°14.032 2°50.04 259.5 3.5 250 8.8
2011-10-13 08:28:48 51°14.03 2°50.033 260.2 3.5 250 8.6
2011-10-13 08:28:54 51°14.028 2°50.024 260.4 3.5 252 8.7
2011-10-13 08:28:59 51°14.027 2°50.017 261.2 3.5 252 8.6
2011-10-13 08:29:04 51°14.025 2°50.009 261.6 3.5 252 8.5
2011-10-13 08:29:08 51°14.024 2°50.004 262.1 3.5 251 8.7
2011-10-13 08:29:13 51°14.022 2°49.996 262.6 3.5 251 8.6
2011-10-13 08:29:19 51°14.02 2°49.987 263.1 3.6 250 8.8
2011-10-13 08:29:24 51°14.019 2°49.98 263.5 3.5 253 8.7
2011-10-13 08:29:28 51°14.018 2°49.974 263.4 3.5 252 8.7
2011-10-13 08:29:33 51°14.016 2°49.967 263.6 3.4 254 8.4
2011-10-13 08:29:39 51°14.014 2°49.958 263.4 3.5 249 8.6
2011-10-13 08:29:44 51°14.013 2°49.951 263.4 3.4 254 8.6
2011-10-13 08:29:48 51°14.011 2°49.945 263.5 3.5 250 8.4
2011-10-13 08:29:53 51°14.01 2°49.938 263.3 3.5 252 8.5
2011-10-13 08:29:59 51°14.008 2°49.929 263.4 3.6 250 8.8
2011-10-13 08:30:04 51°14.006 2°49.922 263.2 3.5 252 8.7
2011-10-13 08:30:08 51°14.005 2°49.916 263.1 3.5 252 8.5
2011-10-13 08:30:13 51°14.004 2°49.908 262.6 3.5 250 8.6
2011-10-13 08:30:19 51°14.002 2°49.9 262.2 3.5 252 8.6
2011-10-13 08:30:24 51°14 2°49.893 262.1 3.5 250 8.5
2011-10-13 08:30:28 51°13.999 2°49.887 261.7 3.5 251 8.6
2011-10-13 08:30:33 51°13.997 2°49.879 261.6 3.5 249 8.6
2011-10-13 08:30:39 51°13.995 2°49.87 261.5 3.6 248 8.9
2011-10-13 08:30:43 51°13.994 2°49.864 261.7 3.6 253 8.5
2011-10-13 08:30:48 51°13.992 2°49.857 261.6 3.6 248 8.5
2011-10-13 08:30:53 51°13.991 2°49.85 261.4 3.6 251 8.6
2011-10-13 08:30:58 51°13.989 2°49.842 261.4 3.5 253 8.4
2011-10-13 08:31:04 51°13.987 2°49.833 261.5 3.6 250 8.7
2011-10-13 08:31:08 51°13.986 2°49.827 261.7 3.5 253 8.5
2011-10-13 08:31:13 51°13.984 2°49.82 261.6 3.5 252 8.3
2011-10-13 08:31:19 51°13.982 2°49.811 261.6 3.5 252 8.4
2011-10-13 08:31:24 51°13.98 2°49.804 261.7 3.5 249 8.7
2011-10-13 08:31:28 51°13.979 2°49.798 261.5 3.5 253 8.4
2011-10-13 08:31:34 51°13.977 2°49.789 261.4 3.6 249 8.6
2011-10-13 08:31:39 51°13.976 2°49.782 261.1 3.5 252 8.7
2011-10-13 08:31:44 51°13.974 2°49.775 260.9 3.5 250 8.6
2011-10-13 08:31:48 51°13.973 2°49.769 260.6 3.6 250 8.6
2011-10-13 08:31:53 51°13.971 2°49.761 260.1 3.6 251 8.4
2011-10-13 08:31:59 51°13.969 2°49.752 260 3.6 249 8.7
2011-10-13 08:32:04 51°13.967 2°49.745 259.6 3.6 250 8.6
2011-10-13 08:32:08 51°13.966 2°49.739 259.4 3.6 247 8.5
2011-10-13 08:32:13 51°13.964 2°49.731 259.1 3.6 251 8.6
2011-10-13 08:32:19 51°13.962 2°49.722 259.4 3.6 251 8.5
2011-10-13 08:32:24 51°13.96 2°49.715 259.1 3.6 249 8.6
2011-10-13 08:32:28 51°13.959 2°49.709 258.8 3.6 250 8.4
2011-10-13 08:32:33 51°13.957 2°49.701 258.6 3.6 248 8.5
2011-10-13 08:32:39 51°13.955 2°49.692 258.5 3.6 250 8.7
2011-10-13 08:32:43 51°13.953 2°49.686 258.5 3.6 249 8.6
2011-10-13 08:32:48 51°13.951 2°49.679 258.3 3.6 249 8.6
2011-10-13 08:32:53 51°13.949 2°49.672 258.1 3.6 249 8.6
2011-10-13 08:32:58 51°13.948 2°49.664 258.1 3.6 249 8.6
2011-10-13 08:33:04 51°13.946 2°49.655 258 3.6 248 8.7
2011-10-13 08:33:08 51°13.944 2°49.65 257.8 3.6 250 8.6
2011-10-13 08:33:13 51°13.942 2°49.642 257.6 3.7 245 8.7
2011-10-13 08:33:19 51°13.94 2°49.633 257.5 3.6 251 8.6
2011-10-13 08:33:24 51°13.938 2°49.626 257.2 3.7 246 8.6
2011-10-13 08:33:28 51°13.937 2°49.62 257 3.7 249 8.5
2011-10-13 08:33:33 51°13.935 2°49.612 256.7 3.7 246 8.6
2011-10-13 08:33:39 51°13.932 2°49.603 256.3 3.6 249 8.6
2011-10-13 08:33:44 51°13.93 2°49.596 256.5 3.7 245 8.7
2011-10-13 08:33:48 51°13.928 2°49.59 256 3.6 248 8.4
2011-10-13 08:33:53 51°13.926 2°49.583 255.9 3.6 245 8.6
2011-10-13 08:33:59 51°13.924 2°49.574 255.6 3.6 247 8.6
2011-10-13 08:34:03 51°13.922 2°49.568 255.5 3.6 246 8.6
2011-10-13 08:34:08 51°13.92 2°49.561 255.3 3.6 247 8.6
2011-10-13 08:34:13 51°13.918 2°49.553 255.5 3.7 246 8.7
2011-10-13 08:34:18 51°13.916 2°49.546 255.6 3.6 250 8.5
2011-10-13 08:34:24 51°13.914 2°49.537 255.8 3.6 244 8.8
2011-10-13 08:34:28 51°13.912 2°49.531 256.2 3.6 250 8.6
2011-10-13 08:34:33 51°13.91 2°49.524 256.6 3.6 247 8.5
2011-10-13 08:34:39 51°13.908 2°49.515 256.9 3.6 246 8.7
2011-10-13 08:34:44 51°13.907 2°49.508 257 3.6 250 8.5
2011-10-13 08:34:48 51°13.905 2°49.502 257.6 3.6 246 8.7
2011-10-13 08:34:53 51°13.903 2°49.495 257.9 3.6 248 8.8
2011-10-13 08:34:59 51°13.901 2°49.486 258.4 3.6 249 8.8
2011-10-13 08:35:03 51°13.9 2°49.48 258.4 3.5 250 8.7
2011-10-13 08:35:08 51°13.898 2°49.473 258.6 3.6 249 8.7
2011-10-13 08:35:14 51°13.896 2°49.464 259.2 3.6 250 8.8
2011-10-13 08:35:19 51°13.894 2°49.456 259.2 3.6 249 8.7
2011-10-13 08:35:23 51°13.892 2°49.45 259.7 3.6 250 8.8
2011-10-13 08:35:28 51°13.891 2°49.443 260.1 3.6 251 8.7
2011-10-13 08:35:33 51°13.889 2°49.435 260.3 3.6 251 8.7
2011-10-13 08:35:39 51°13.887 2°49.426 260.2 3.6 249 8.9
2011-10-13 08:35:44 51°13.886 2°49.419 260.6 3.6 253 8.8
2011-10-13 08:35:48 51°13.884 2°49.413 260.7 3.6 249 8.8
2011-10-13 08:35:53 51°13.883 2°49.406 261 3.6 252 8.7
2011-10-13 08:35:59 51°13.881 2°49.397 261.2 3.6 251 8.7
2011-10-13 08:36:04 51°13.879 2°49.389 261.2 3.6 251 8.8
2011-10-13 08:36:08 51°13.877 2°49.383 261.2 3.6 251 8.8
2011-10-13 08:36:13 51°13.876 2°49.376 261.3 3.6 249 9
2011-10-13 08:36:19 51°13.874 2°49.367 261.1 3.6 252 8.9
2011-10-13 08:36:24 51°13.872 2°49.359 261.1 3.6 251 8.7
2011-10-13 08:36:28 51°13.871 2°49.353 261.1 3.6 251 8.8
2011-10-13 08:36:33 51°13.869 2°49.346 261.2 3.6 248 9.1
2011-10-13 08:36:38 51°13.867 2°49.338 261.3 3.6 251 9
2011-10-13 08:36:44 51°13.865 2°49.33 261.3 3.6 249 9.1
2011-10-13 08:36:48 51°13.864 2°49.324 261.4 3.6 249 9.1
2011-10-13 08:36:53 51°13.862 2°49.316 261.4 3.6 249 9.1
2011-10-13 08:36:59 51°13.86 2°49.308 261.4 3.5 249 8.9
2011-10-13 08:37:04 51°13.858 2°49.3 261.4 3.5 250 8.9
2011-10-13 08:37:08 51°13.857 2°49.294 261.4 3.6 248 9.2
2011-10-13 08:37:13 51°13.855 2°49.287 261.7 3.5 251 8.9
2011-10-13 08:37:18 51°13.854 2°49.28 261.4 3.5 251 8.7
2011-10-13 08:37:23 51°13.852 2°49.272 261.4 3.5 248 9
2011-10-13 08:37:28 51°13.85 2°49.265 261.5 3.5 251 9.1
2011-10-13 08:37:33 51°13.848 2°49.258 261.7 3.5 248 9.2
2011-10-13 08:37:39 51°13.847 2°49.249 261.4 3.5 252 9.1
2011-10-13 08:37:44 51°13.845 2°49.242 261.5 3.6 248 9
2011-10-13 08:37:48 51°13.844 2°49.235 261.6 3.5 253 9
2011-10-13 08:37:53 51°13.842 2°49.228 261.9 3.6 248 9.1
2011-10-13 08:37:59 51°13.84 2°49.219 261.9 3.5 252 9.3
2011-10-13 08:38:04 51°13.838 2°49.212 262.1 3.5 249 9.2
2011-10-13 08:38:08 51°13.837 2°49.206 261.9 3.5 251 9.1
2011-10-13 08:38:13 51°13.836 2°49.199 262 3.5 251 9.1
2011-10-13 08:38:19 51°13.834 2°49.19 262 3.5 254 8.9
2011-10-13 08:38:24 51°13.832 2°49.183 261.8 3.5 249 9
2011-10-13 08:38:28 51°13.831 2°49.176 261.4 3.5 252 9
2011-10-13 08:38:33 51°13.829 2°49.169 261.3 3.5 248 9.2
2011-10-13 08:38:38 51°13.828 2°49.162 261.4 3.5 249 9.1
2011-10-13 08:38:44 51°13.825 2°49.153 261 3.5 251 9
2011-10-13 08:38:48 51°13.824 2°49.147 260.6 3.6 249 9.1
2011-10-13 08:38:53 51°13.822 2°49.14 260.6 3.5 250 9
2011-10-13 08:38:59 51°13.821 2°49.131 260.2 3.5 251 9
2011-10-13 08:39:04 51°13.818 2°49.124 259.5 3.6 248 9.2
2011-10-13 08:39:08 51°13.817 2°49.118 259.6 3.6 250 9
2011-10-13 08:39:13 51°13.815 2°49.111 259.5 3.6 247 8.9
2011-10-13 08:39:19 51°13.813 2°49.102 259.4 3.6 249 9
2011-10-13 08:39:24 51°13.812 2°49.094 259.1 3.5 251 9
2011-10-13 08:39:28 51°13.81 2°49.089 258.7 3.6 246 9.2
2011-10-13 08:39:33 51°13.808 2°49.081 258.7 3.5 251 9.1
2011-10-13 08:39:38 51°13.806 2°49.074 258.5 3.6 246 9.3
2011-10-13 08:39:43 51°13.805 2°49.066 258.5 3.6 250 9
2011-10-13 08:39:48 51°13.803 2°49.059 258.2 3.6 248 9
2011-10-13 08:39:53 51°13.801 2°49.052 257.8 3.6 250 8.8
2011-10-13 08:39:59 51°13.799 2°49.043 257.7 3.6 247 9
2011-10-13 08:40:04 51°13.797 2°49.035 257.7 3.6 251 8.9
2011-10-13 08:40:08 51°13.795 2°49.03 257.5 3.6 247 8.9
2011-10-13 08:40:13 51°13.794 2°49.022 257.3 3.6 249 8.8
2011-10-13 08:40:19 51°13.791 2°49.013 257.4 3.6 248 8.8
2011-10-13 08:40:24 51°13.789 2°49.006 257.2 3.6 246 9
2011-10-13 08:40:28 51°13.788 2°49 257 3.6 249 8.9
2011-10-13 08:40:33 51°13.786 2°48.993 257 3.6 246 9
2011-10-13 08:40:39 51°13.784 2°48.984 256.9 3.6 246 9.2
2011-10-13 08:40:44 51°13.782 2°48.976 256.8 3.6 247 9.2
2011-10-13 08:40:48 51°13.78 2°48.971 257 3.6 248 9.1
2011-10-13 08:40:53 51°13.778 2°48.963 256.8 3.6 247 9.1
2011-10-13 08:40:59 51°13.776 2°48.954 257.2 3.6 249 9
2011-10-13 08:41:04 51°13.774 2°48.947 257.1 3.6 247 9.1
2011-10-13 08:41:08 51°13.773 2°48.941 257.4 3.6 249 8.8
2011-10-13 08:41:13 51°13.771 2°48.934 257.7 3.6 249 8.8
2011-10-13 08:41:18 51°13.769 2°48.927 258 3.6 250 8.8
2011-10-13 08:41:24 51°13.767 2°48.918 258.4 3.6 249 8.9
2011-10-13 08:41:28 51°13.765 2°48.912 258.8 3.6 251 9
2011-10-13 08:41:33 51°13.764 2°48.904 259.2 3.6 249 9.2
2011-10-13 08:41:39 51°13.762 2°48.895 260.1 3.6 251 9.1
2011-10-13 08:41:44 51°13.76 2°48.888 261.3 3.6 252 9.1
2011-10-13 08:41:48 51°13.759 2°48.882 262.5 3.6 253 9.3
2011-10-13 08:41:53 51°13.758 2°48.874 263.4 3.5 254 9.2
2011-10-13 08:41:59 51°13.756 2°48.865 265 3.5 254 9.4
2011-10-13 08:42:04 51°13.755 2°48.858 266.5 3.5 255 9.3
2011-10-13 08:42:08 51°13.754 2°48.852 267.8 3.5 255 9.5
2011-10-13 08:42:13 51°13.753 2°48.844 269.5 3.4 259 9.4
2011-10-13 08:42:19 51°13.752 2°48.835 271.1 3.5 257 9.4
2011-10-13 08:42:24 51°13.751 2°48.828 272.8 3.4 260 9.5
2011-10-13 08:42:28 51°13.75 2°48.822 274.6 3.4 259 9.4
2011-10-13 08:42:33 51°13.749 2°48.815 276.1 3.4 260 9.7
2011-10-13 08:42:39 51°13.749 2°48.806 277.5 3.4 263 9.6
2011-10-13 08:42:44 51°13.748 2°48.799 279.2 3.3 262 9.6
2011-10-13 08:42:48 51°13.748 2°48.793 280 3.2 264 9.8
2011-10-13 08:42:53 51°13.747 2°48.786 281.4 3.2 265 9.7
2011-10-13 08:42:59 51°13.747 2°48.777 282.5 3.3 265 9.5
2011-10-13 08:43:04 51°13.746 2°48.77 283.5 3.2 266 9.4
2011-10-13 08:43:08 51°13.746 2°48.765 284.4 3.2 266 9.4
2011-10-13 08:43:13 51°13.746 2°48.757 285.3 3.3 264 9.9
2011-10-13 08:43:18 51°13.746 2°48.75 286.6 3.2 267 9.9
2011-10-13 08:43:24 51°13.745 2°48.742 287.4 3.2 265 9.8
2011-10-13 08:43:28 51°13.745 2°48.737 288.2 3.1 269 9.8
2011-10-13 08:43:33 51°13.745 2°48.73 289.3 3.2 268 9.9
2011-10-13 08:43:38 51°13.745 2°48.723 290.3 3.1 270 9.8
2011-10-13 08:43:44 51°13.745 2°48.714 291.3 3.2 269 9.8
2011-10-13 08:43:48 51°13.745 2°48.709 292 3.1 272 9.9
2011-10-13 08:43:53 51°13.745 2°48.702 293.3 3.1 274 9.8
2011-10-13 08:43:58 51°13.745 2°48.695 293.8 3.1 269 9.9
2011-10-13 08:44:03 51°13.746 2°48.688 294.9 3 274 9.8
2011-10-13 08:44:08 51°13.746 2°48.682 295.7 3.1 273 10
2011-10-13 08:44:13 51°13.746 2°48.675 296.9 3 276 10.1
2011-10-13 08:44:19 51°13.747 2°48.667 298.1 3 275 9.9
2011-10-13 08:44:24 51°13.747 2°48.66 298.9 3 274 10
2011-10-13 08:44:28 51°13.748 2°48.655 299.8 3 278 10
2011-10-13 08:44:33 51°13.748 2°48.648 300.9 3 276 9.9
2011-10-13 08:44:39 51°13.749 2°48.641 301.5 2.9 278 10
2011-10-13 08:44:44 51°13.749 2°48.634 302.4 3 275 10.2
2011-10-13 08:44:48 51°13.75 2°48.63 303.2 2.8 280 10.1
2011-10-13 08:44:54 51°13.75 2°48.622 304.2 2.8 279 10.2
2011-10-13 08:44:59 51°13.751 2°48.616 304.9 2.9 278 10.3
2011-10-13 08:45:04 51°13.752 2°48.61 306.2 2.8 281 10.1
2011-10-13 08:45:08 51°13.752 2°48.605 307.8 2.7 281 10.3
2011-10-13 08:45:13 51°13.753 2°48.599 309.3 2.7 281 10.3
2011-10-13 08:45:19 51°13.754 2°48.591 310.8 2.8 284 10.3
2011-10-13 08:45:24 51°13.755 2°48.585 312.7 3 287 10.6
2011-10-13 08:45:28 51°13.756 2°48.58 314.4 3.1 290 10.2
2011-10-13 08:45:33 51°13.758 2°48.573 316.2 3.3 294 10.4
2011-10-13 08:45:39 51°13.761 2°48.564 318.5 3.6 299 10.4
2011-10-13 08:45:44 51°13.764 2°48.557 320.5 3.7 301 10.3
2011-10-13 08:45:48 51°13.766 2°48.552 323 3.8 303 10.5
2011-10-13 08:45:53 51°13.77 2°48.545 325.4 4 308 10.5
2011-10-13 08:45:59 51°13.774 2°48.537 327.7 4.1 311 10.7
2011-10-13 08:46:03 51°13.777 2°48.531 330.2 4.3 313 10.8
2011-10-13 08:46:08 51°13.782 2°48.524 332.5 4.2 314 10.7
2011-10-13 08:46:14 51°13.786 2°48.517 334.3 4 317 10.7
2011-10-13 08:46:18 51°13.789 2°48.512 336.2 3.7 316 10.7
2011-10-13 08:46:23 51°13.793 2°48.507 337.5 3.5 317 10.7
2011-10-13 08:46:28 51°13.796 2°48.502 339 3.3 318 10.7
2011-10-13 08:46:33 51°13.8 2°48.497 340.5 3.3 317 10.6
2011-10-13 08:46:39 51°13.803 2°48.492 342 3.1 318 10.8
2011-10-13 08:46:44 51°13.806 2°48.487 343.3 2.9 317 10.7